sensor_id;sensor_type;location;lat;lon;timestamp;P1;durP1;ratioP1;P2;durP2;ratioP2
40154;SDS011;25875;48.202;16.334;2023-05-10T00:00:37;6.72;;;3.70;;
40154;SDS011;25875;48.202;16.334;2023-05-10T00:03:05;4.10;;;3.35;;
40154;SDS011;25875;48.202;16.334;2023-05-10T00:05:32;3.90;;;2.97;;
40154;SDS011;25875;48.202;16.334;2023-05-10T00:07:59;5.65;;;3.15;;
40154;SDS011;25875;48.202;16.334;2023-05-10T00:10:25;6.25;;;3.22;;
40154;SDS011;25875;48.202;16.334;2023-05-10T00:12:52;4.18;;;2.92;;
40154;SDS011;25875;48.202;16.334;2023-05-10T00:15:19;4.03;;;3.00;;
40154;SDS011;25875;48.202;16.334;2023-05-10T00:17:45;5.25;;;2.80;;
40154;SDS011;25875;48.202;16.334;2023-05-10T00:20:13;6.00;;;3.47;;
40154;SDS011;25875;48.202;16.334;2023-05-10T00:22:40;5.50;;;3.65;;
40154;SDS011;25875;48.202;16.334;2023-05-10T00:25:07;4.90;;;3.53;;
40154;SDS011;25875;48.202;16.334;2023-05-10T00:27:35;5.32;;;3.72;;
40154;SDS011;25875;48.202;16.334;2023-05-10T00:30:01;5.45;;;3.20;;
40154;SDS011;25875;48.202;16.334;2023-05-10T00:32:28;6.35;;;3.47;;
40154;SDS011;25875;48.202;16.334;2023-05-10T00:34:55;6.22;;;4.28;;
40154;SDS011;25875;48.202;16.334;2023-05-10T00:37:23;5.53;;;3.80;;
40154;SDS011;25875;48.202;16.334;2023-05-10T00:39:50;4.13;;;3.25;;
40154;SDS011;25875;48.202;16.334;2023-05-10T00:42:17;4.35;;;3.05;;
40154;SDS011;25875;48.202;16.334;2023-05-10T00:44:43;6.07;;;3.88;;
40154;SDS011;25875;48.202;16.334;2023-05-10T00:47:11;4.60;;;3.17;;
40154;SDS011;25875;48.202;16.334;2023-05-10T00:49:38;5.05;;;3.40;;
40154;SDS011;25875;48.202;16.334;2023-05-10T00:52:05;4.10;;;3.03;;
40154;SDS011;25875;48.202;16.334;2023-05-10T00:54:34;6.35;;;4.72;;
40154;SDS011;25875;48.202;16.334;2023-05-10T00:57:00;5.57;;;3.25;;
40154;SDS011;25875;48.202;16.334;2023-05-10T00:59:28;4.60;;;3.13;;
40154;SDS011;25875;48.202;16.334;2023-05-10T01:01:55;6.38;;;3.38;;
40154;SDS011;25875;48.202;16.334;2023-05-10T01:04:23;4.78;;;3.55;;
40154;SDS011;25875;48.202;16.334;2023-05-10T01:06:51;6.65;;;3.55;;
40154;SDS011;25875;48.202;16.334;2023-05-10T01:09:19;5.20;;;3.85;;
40154;SDS011;25875;48.202;16.334;2023-05-10T01:11:47;5.32;;;3.22;;
40154;SDS011;25875;48.202;16.334;2023-05-10T01:14:15;4.53;;;3.63;;
40154;SDS011;25875;48.202;16.334;2023-05-10T01:16:44;6.10;;;3.55;;
40154;SDS011;25875;48.202;16.334;2023-05-10T01:19:16;5.50;;;3.38;;
40154;SDS011;25875;48.202;16.334;2023-05-10T01:21:48;5.20;;;3.83;;
40154;SDS011;25875;48.202;16.334;2023-05-10T01:24:28;4.88;;;3.78;;
40154;SDS011;25875;48.202;16.334;2023-05-10T01:30:27;5.50;;;3.88;;
40154;SDS011;25875;48.202;16.334;2023-05-10T01:33:24;4.60;;;3.70;;
40154;SDS011;25875;48.202;16.334;2023-05-10T01:35:58;4.10;;;3.42;;
40154;SDS011;25875;48.202;16.334;2023-05-10T01:38:32;4.70;;;3.70;;
40154;SDS011;25875;48.202;16.334;2023-05-10T01:41:14;5.72;;;3.53;;
40154;SDS011;25875;48.202;16.334;2023-05-10T01:43:54;4.40;;;3.45;;
40154;SDS011;25875;48.202;16.334;2023-05-10T01:46:30;4.53;;;3.63;;
40154;SDS011;25875;48.202;16.334;2023-05-10T01:49:03;4.70;;;3.53;;
40154;SDS011;25875;48.202;16.334;2023-05-10T01:51:36;7.00;;;4.25;;
40154;SDS011;25875;48.202;16.334;2023-05-10T01:54:06;4.57;;;3.80;;
40154;SDS011;25875;48.202;16.334;2023-05-10T01:56:35;6.53;;;3.50;;
40154;SDS011;25875;48.202;16.334;2023-05-10T01:59:06;4.78;;;3.80;;
40154;SDS011;25875;48.202;16.334;2023-05-10T02:01:37;6.00;;;3.95;;
40154;SDS011;25875;48.202;16.334;2023-05-10T02:04:07;6.45;;;4.72;;
40154;SDS011;25875;48.202;16.334;2023-05-10T02:06:36;8.13;;;3.78;;
40154;SDS011;25875;48.202;16.334;2023-05-10T02:09:05;4.65;;;3.95;;
40154;SDS011;25875;48.202;16.334;2023-05-10T02:11:34;4.97;;;3.65;;
40154;SDS011;25875;48.202;16.334;2023-05-10T02:14:03;4.60;;;3.50;;
40154;SDS011;25875;48.202;16.334;2023-05-10T02:16:34;5.05;;;4.07;;
40154;SDS011;25875;48.202;16.334;2023-05-10T02:19:02;5.55;;;4.22;;
40154;SDS011;25875;48.202;16.334;2023-05-10T02:21:31;5.07;;;4.15;;
40154;SDS011;25875;48.202;16.334;2023-05-10T02:24:00;4.07;;;3.60;;
40154;SDS011;25875;48.202;16.334;2023-05-10T02:26:29;5.18;;;3.90;;
40154;SDS011;25875;48.202;16.334;2023-05-10T02:28:57;5.28;;;4.22;;
40154;SDS011;25875;48.202;16.334;2023-05-10T02:31:25;5.20;;;3.70;;
40154;SDS011;25875;48.202;16.334;2023-05-10T02:33:52;6.63;;;3.80;;
40154;SDS011;25875;48.202;16.334;2023-05-10T02:36:20;5.05;;;3.58;;
40154;SDS011;25875;48.202;16.334;2023-05-10T02:38:50;5.95;;;4.22;;
40154;SDS011;25875;48.202;16.334;2023-05-10T02:41:19;5.28;;;3.83;;
40154;SDS011;25875;48.202;16.334;2023-05-10T02:43:49;4.80;;;3.67;;
40154;SDS011;25875;48.202;16.334;2023-05-10T02:46:17;4.90;;;3.72;;
40154;SDS011;25875;48.202;16.334;2023-05-10T02:48:43;6.18;;;4.50;;
40154;SDS011;25875;48.202;16.334;2023-05-10T02:51:10;7.85;;;4.43;;
40154;SDS011;25875;48.202;16.334;2023-05-10T02:53:43;4.40;;;3.38;;
40154;SDS011;25875;48.202;16.334;2023-05-10T02:56:15;5.28;;;4.00;;
40154;SDS011;25875;48.202;16.334;2023-05-10T02:58:54;4.97;;;3.70;;
40154;SDS011;25875;48.202;16.334;2023-05-10T03:01:21;5.18;;;4.05;;
40154;SDS011;25875;48.202;16.334;2023-05-10T03:03:48;7.13;;;4.47;;
40154;SDS011;25875;48.202;16.334;2023-05-10T03:06:15;5.18;;;4.05;;
40154;SDS011;25875;48.202;16.334;2023-05-10T03:08:42;5.00;;;4.22;;
40154;SDS011;25875;48.202;16.334;2023-05-10T03:11:16;4.53;;;3.90;;
40154;SDS011;25875;48.202;16.334;2023-05-10T03:14:02;4.55;;;3.92;;
40154;SDS011;25875;48.202;16.334;2023-05-10T03:16:39;4.85;;;3.95;;
40154;SDS011;25875;48.202;16.334;2023-05-10T03:19:12;4.90;;;3.70;;
40154;SDS011;25875;48.202;16.334;2023-05-10T03:21:45;5.15;;;4.10;;
40154;SDS011;25875;48.202;16.334;2023-05-10T03:24:17;6.28;;;4.05;;
40154;SDS011;25875;48.202;16.334;2023-05-10T03:26:49;4.63;;;3.63;;
40154;SDS011;25875;48.202;16.334;2023-05-10T03:29:19;5.43;;;3.97;;
40154;SDS011;25875;48.202;16.334;2023-05-10T03:31:47;5.28;;;4.05;;
40154;SDS011;25875;48.202;16.334;2023-05-10T03:34:14;8.50;;;4.00;;
40154;SDS011;25875;48.202;16.334;2023-05-10T03:36:41;4.55;;;3.92;;
40154;SDS011;25875;48.202;16.334;2023-05-10T03:39:08;4.63;;;3.83;;
40154;SDS011;25875;48.202;16.334;2023-05-10T03:41:35;5.82;;;3.95;;
40154;SDS011;25875;48.202;16.334;2023-05-10T03:44:03;8.60;;;4.63;;
40154;SDS011;25875;48.202;16.334;2023-05-10T03:46:30;6.70;;;3.90;;
40154;SDS011;25875;48.202;16.334;2023-05-10T03:48:57;5.68;;;4.13;;
40154;SDS011;25875;48.202;16.334;2023-05-10T03:51:24;5.03;;;4.35;;
40154;SDS011;25875;48.202;16.334;2023-05-10T03:53:53;6.40;;;4.00;;
40154;SDS011;25875;48.202;16.334;2023-05-10T03:56:19;5.57;;;4.00;;
40154;SDS011;25875;48.202;16.334;2023-05-10T03:58:46;6.15;;;3.55;;
40154;SDS011;25875;48.202;16.334;2023-05-10T04:01:14;5.72;;;4.00;;
40154;SDS011;25875;48.202;16.334;2023-05-10T04:03:41;7.03;;;4.38;;
40154;SDS011;25875;48.202;16.334;2023-05-10T04:06:08;5.45;;;4.18;;
40154;SDS011;25875;48.202;16.334;2023-05-10T04:08:36;5.22;;;4.22;;
40154;SDS011;25875;48.202;16.334;2023-05-10T04:11:06;4.70;;;3.95;;
40154;SDS011;25875;48.202;16.334;2023-05-10T04:13:33;4.35;;;3.95;;
40154;SDS011;25875;48.202;16.334;2023-05-10T04:16:00;5.65;;;4.07;;
40154;SDS011;25875;48.202;16.334;2023-05-10T04:18:28;5.68;;;4.30;;
40154;SDS011;25875;48.202;16.334;2023-05-10T04:20:55;5.15;;;4.65;;
40154;SDS011;25875;48.202;16.334;2023-05-10T04:23:21;6.57;;;4.45;;
40154;SDS011;25875;48.202;16.334;2023-05-10T04:25:48;4.63;;;3.95;;
40154;SDS011;25875;48.202;16.334;2023-05-10T04:28:15;6.68;;;4.65;;
40154;SDS011;25875;48.202;16.334;2023-05-10T04:30:41;5.57;;;4.43;;
40154;SDS011;25875;48.202;16.334;2023-05-10T04:33:08;4.93;;;4.30;;
40154;SDS011;25875;48.202;16.334;2023-05-10T04:35:36;5.30;;;4.03;;
40154;SDS011;25875;48.202;16.334;2023-05-10T04:38:05;5.32;;;4.35;;
40154;SDS011;25875;48.202;16.334;2023-05-10T04:40:31;5.28;;;4.18;;
40154;SDS011;25875;48.202;16.334;2023-05-10T04:42:59;7.00;;;3.95;;
40154;SDS011;25875;48.202;16.334;2023-05-10T04:45:26;5.38;;;4.43;;
40154;SDS011;25875;48.202;16.334;2023-05-10T04:47:52;5.38;;;4.22;;
40154;SDS011;25875;48.202;16.334;2023-05-10T04:50:19;5.93;;;4.38;;
40154;SDS011;25875;48.202;16.334;2023-05-10T04:52:47;8.20;;;4.78;;
40154;SDS011;25875;48.202;16.334;2023-05-10T04:55:14;7.32;;;5.22;;
40154;SDS011;25875;48.202;16.334;2023-05-10T04:57:41;5.35;;;4.47;;
40154;SDS011;25875;48.202;16.334;2023-05-10T05:00:08;5.47;;;4.72;;
40154;SDS011;25875;48.202;16.334;2023-05-10T05:02:35;6.47;;;4.93;;
40154;SDS011;25875;48.202;16.334;2023-05-10T05:05:02;8.25;;;4.63;;
40154;SDS011;25875;48.202;16.334;2023-05-10T05:07:29;5.38;;;4.75;;
40154;SDS011;25875;48.202;16.334;2023-05-10T05:09:57;6.18;;;4.85;;
40154;SDS011;25875;48.202;16.334;2023-05-10T05:12:24;5.70;;;4.85;;
40154;SDS011;25875;48.202;16.334;2023-05-10T05:14:50;6.18;;;5.25;;
40154;SDS011;25875;48.202;16.334;2023-05-10T05:17:17;6.70;;;5.10;;
40154;SDS011;25875;48.202;16.334;2023-05-10T05:19:44;5.85;;;4.88;;
40154;SDS011;25875;48.202;16.334;2023-05-10T05:22:10;5.80;;;5.03;;
40154;SDS011;25875;48.202;16.334;2023-05-10T05:24:37;6.22;;;4.95;;
40154;SDS011;25875;48.202;16.334;2023-05-10T05:27:05;6.47;;;4.97;;
40154;SDS011;25875;48.202;16.334;2023-05-10T05:29:32;6.85;;;5.63;;
40154;SDS011;25875;48.202;16.334;2023-05-10T05:31:59;7.05;;;4.50;;
40154;SDS011;25875;48.202;16.334;2023-05-10T05:34:26;6.93;;;5.18;;
40154;SDS011;25875;48.202;16.334;2023-05-10T05:36:53;6.65;;;5.63;;
40154;SDS011;25875;48.202;16.334;2023-05-10T05:39:20;6.93;;;5.63;;
40154;SDS011;25875;48.202;16.334;2023-05-10T05:41:47;5.75;;;4.43;;
40154;SDS011;25875;48.202;16.334;2023-05-10T05:44:15;6.47;;;4.97;;
40154;SDS011;25875;48.202;16.334;2023-05-10T05:46:42;6.38;;;4.55;;
40154;SDS011;25875;48.202;16.334;2023-05-10T05:49:08;10.23;;;5.93;;
40154;SDS011;25875;48.202;16.334;2023-05-10T05:51:35;6.07;;;4.72;;
40154;SDS011;25875;48.202;16.334;2023-05-10T05:54:02;6.15;;;4.85;;
40154;SDS011;25875;48.202;16.334;2023-05-10T05:56:29;6.63;;;5.35;;
40154;SDS011;25875;48.202;16.334;2023-05-10T05:58:56;5.68;;;4.65;;
40154;SDS011;25875;48.202;16.334;2023-05-10T06:01:24;6.30;;;5.03;;
40154;SDS011;25875;48.202;16.334;2023-05-10T06:03:51;7.40;;;5.45;;
40154;SDS011;25875;48.202;16.334;2023-05-10T06:06:17;7.13;;;5.47;;
40154;SDS011;25875;48.202;16.334;2023-05-10T06:08:44;5.93;;;4.82;;
40154;SDS011;25875;48.202;16.334;2023-05-10T06:11:11;7.45;;;4.95;;
40154;SDS011;25875;48.202;16.334;2023-05-10T06:13:37;7.18;;;4.95;;
40154;SDS011;25875;48.202;16.334;2023-05-10T06:16:04;6.57;;;5.30;;
40154;SDS011;25875;48.202;16.334;2023-05-10T06:18:33;6.63;;;5.40;;
40154;SDS011;25875;48.202;16.334;2023-05-10T06:21:00;6.03;;;4.60;;
40154;SDS011;25875;48.202;16.334;2023-05-10T06:23:26;6.10;;;4.50;;
40154;SDS011;25875;48.202;16.334;2023-05-10T06:25:53;7.07;;;5.07;;
40154;SDS011;25875;48.202;16.334;2023-05-10T06:28:20;6.32;;;4.82;;
40154;SDS011;25875;48.202;16.334;2023-05-10T06:30:47;7.63;;;5.43;;
40154;SDS011;25875;48.202;16.334;2023-05-10T06:33:14;8.00;;;4.80;;
40154;SDS011;25875;48.202;16.334;2023-05-10T06:35:42;4.80;;;4.30;;
40154;SDS011;25875;48.202;16.334;2023-05-10T06:38:09;5.38;;;4.40;;
40154;SDS011;25875;48.202;16.334;2023-05-10T06:40:35;7.32;;;4.88;;
40154;SDS011;25875;48.202;16.334;2023-05-10T06:43:02;6.45;;;4.35;;
40154;SDS011;25875;48.202;16.334;2023-05-10T06:45:29;7.38;;;4.72;;
40154;SDS011;25875;48.202;16.334;2023-05-10T06:47:56;6.47;;;4.93;;
40154;SDS011;25875;48.202;16.334;2023-05-10T06:50:23;6.75;;;4.65;;
40154;SDS011;25875;48.202;16.334;2023-05-10T06:52:51;6.07;;;4.05;;
40154;SDS011;25875;48.202;16.334;2023-05-10T06:55:17;7.93;;;5.15;;
40154;SDS011;25875;48.202;16.334;2023-05-10T06:57:44;5.57;;;4.43;;
40154;SDS011;25875;48.202;16.334;2023-05-10T07:00:12;8.35;;;5.45;;
40154;SDS011;25875;48.202;16.334;2023-05-10T07:02:40;7.38;;;5.43;;
40154;SDS011;25875;48.202;16.334;2023-05-10T07:05:07;7.30;;;4.93;;
40154;SDS011;25875;48.202;16.334;2023-05-10T07:07:34;6.55;;;4.68;;
40154;SDS011;25875;48.202;16.334;2023-05-10T07:10:03;5.55;;;4.32;;
40154;SDS011;25875;48.202;16.334;2023-05-10T07:12:30;7.72;;;5.68;;
40154;SDS011;25875;48.202;16.334;2023-05-10T07:14:57;6.75;;;4.85;;
40154;SDS011;25875;48.202;16.334;2023-05-10T07:17:23;5.82;;;4.53;;
40154;SDS011;25875;48.202;16.334;2023-05-10T07:19:50;8.00;;;5.10;;
40154;SDS011;25875;48.202;16.334;2023-05-10T07:22:17;5.03;;;4.32;;
40154;SDS011;25875;48.202;16.334;2023-05-10T07:24:44;7.05;;;4.53;;
40154;SDS011;25875;48.202;16.334;2023-05-10T07:27:13;5.60;;;4.85;;
40154;SDS011;25875;48.202;16.334;2023-05-10T07:29:39;7.57;;;4.53;;
40154;SDS011;25875;48.202;16.334;2023-05-10T07:32:06;7.32;;;4.75;;
40154;SDS011;25875;48.202;16.334;2023-05-10T07:34:33;6.40;;;4.28;;
40154;SDS011;25875;48.202;16.334;2023-05-10T07:37:00;5.82;;;4.72;;
40154;SDS011;25875;48.202;16.334;2023-05-10T07:39:27;7.45;;;4.93;;
40154;SDS011;25875;48.202;16.334;2023-05-10T07:41:54;5.90;;;4.97;;
40154;SDS011;25875;48.202;16.334;2023-05-10T07:44:22;6.43;;;4.78;;
40154;SDS011;25875;48.202;16.334;2023-05-10T07:46:49;6.95;;;4.47;;
40154;SDS011;25875;48.202;16.334;2023-05-10T07:49:16;6.40;;;5.25;;
40154;SDS011;25875;48.202;16.334;2023-05-10T07:51:43;7.47;;;4.78;;
40154;SDS011;25875;48.202;16.334;2023-05-10T07:54:09;5.53;;;4.32;;
40154;SDS011;25875;48.202;16.334;2023-05-10T07:56:36;9.93;;;6.63;;
40154;SDS011;25875;48.202;16.334;2023-05-10T07:59:04;9.20;;;5.40;;
40154;SDS011;25875;48.202;16.334;2023-05-10T08:01:33;6.78;;;5.22;;
40154;SDS011;25875;48.202;16.334;2023-05-10T08:04:00;6.50;;;4.28;;
40154;SDS011;25875;48.202;16.334;2023-05-10T08:06:27;5.25;;;4.63;;
40154;SDS011;25875;48.202;16.334;2023-05-10T08:08:55;5.93;;;4.68;;
40154;SDS011;25875;48.202;16.334;2023-05-10T08:11:22;6.22;;;4.85;;
40154;SDS011;25875;48.202;16.334;2023-05-10T08:13:49;6.53;;;4.80;;
40154;SDS011;25875;48.202;16.334;2023-05-10T08:16:17;5.88;;;4.65;;
40154;SDS011;25875;48.202;16.334;2023-05-10T08:18:46;5.65;;;4.60;;
40154;SDS011;25875;48.202;16.334;2023-05-10T08:21:14;9.40;;;6.15;;
40154;SDS011;25875;48.202;16.334;2023-05-10T08:23:41;11.02;;;5.40;;
40154;SDS011;25875;48.202;16.334;2023-05-10T08:26:08;8.40;;;4.75;;
40154;SDS011;25875;48.202;16.334;2023-05-10T08:28:35;6.60;;;4.82;;
40154;SDS011;25875;48.202;16.334;2023-05-10T08:31:02;6.20;;;4.88;;
40154;SDS011;25875;48.202;16.334;2023-05-10T08:33:30;7.07;;;4.30;;
40154;SDS011;25875;48.202;16.334;2023-05-10T08:35:58;10.00;;;4.80;;
40154;SDS011;25875;48.202;16.334;2023-05-10T08:38:25;6.35;;;4.13;;
40154;SDS011;25875;48.202;16.334;2023-05-10T08:40:52;6.60;;;4.70;;
40154;SDS011;25875;48.202;16.334;2023-05-10T08:43:21;5.60;;;4.30;;
40154;SDS011;25875;48.202;16.334;2023-05-10T08:45:52;4.90;;;3.90;;
40154;SDS011;25875;48.202;16.334;2023-05-10T08:48:20;6.18;;;4.35;;
40154;SDS011;25875;48.202;16.334;2023-05-10T08:50:51;5.82;;;3.95;;
40154;SDS011;25875;48.202;16.334;2023-05-10T08:53:21;10.48;;;4.88;;
40154;SDS011;25875;48.202;16.334;2023-05-10T08:55:51;5.22;;;4.07;;
40154;SDS011;25875;48.202;16.334;2023-05-10T08:58:17;5.38;;;4.40;;
40154;SDS011;25875;48.202;16.334;2023-05-10T09:00:45;6.75;;;4.30;;
40154;SDS011;25875;48.202;16.334;2023-05-10T09:03:15;5.28;;;4.32;;
40154;SDS011;25875;48.202;16.334;2023-05-10T09:05:42;5.90;;;3.88;;
40154;SDS011;25875;48.202;16.334;2023-05-10T09:08:11;4.85;;;3.88;;
40154;SDS011;25875;48.202;16.334;2023-05-10T09:10:39;5.90;;;3.72;;
40154;SDS011;25875;48.202;16.334;2023-05-10T09:13:08;10.70;;;5.25;;
40154;SDS011;25875;48.202;16.334;2023-05-10T09:15:36;6.07;;;4.15;;
40154;SDS011;25875;48.202;16.334;2023-05-10T09:18:03;6.13;;;3.17;;
40154;SDS011;25875;48.202;16.334;2023-05-10T09:20:30;4.47;;;2.88;;
40154;SDS011;25875;48.202;16.334;2023-05-10T09:22:57;7.88;;;3.75;;
40154;SDS011;25875;48.202;16.334;2023-05-10T09:25:24;7.60;;;3.15;;
40154;SDS011;25875;48.202;16.334;2023-05-10T09:27:52;5.90;;;3.22;;
40154;SDS011;25875;48.202;16.334;2023-05-10T09:30:23;6.50;;;3.08;;
40154;SDS011;25875;48.202;16.334;2023-05-10T09:32:50;8.85;;;2.70;;
40154;SDS011;25875;48.202;16.334;2023-05-10T09:35:18;8.98;;;3.47;;
40154;SDS011;25875;48.202;16.334;2023-05-10T09:37:46;7.30;;;2.55;;
40154;SDS011;25875;48.202;16.334;2023-05-10T09:40:15;3.28;;;2.20;;
40154;SDS011;25875;48.202;16.334;2023-05-10T09:42:50;5.95;;;2.58;;
40154;SDS011;25875;48.202;16.334;2023-05-10T09:45:21;3.55;;;2.65;;
40154;SDS011;25875;48.202;16.334;2023-05-10T09:47:48;4.68;;;2.20;;
40154;SDS011;25875;48.202;16.334;2023-05-10T09:50:16;3.20;;;2.40;;
40154;SDS011;25875;48.202;16.334;2023-05-10T09:52:46;4.07;;;2.17;;
40154;SDS011;25875;48.202;16.334;2023-05-10T09:55:17;4.57;;;2.40;;
40154;SDS011;25875;48.202;16.334;2023-05-10T09:57:45;3.28;;;1.90;;
40154;SDS011;25875;48.202;16.334;2023-05-10T10:00:18;4.43;;;2.65;;
40154;SDS011;25875;48.202;16.334;2023-05-10T10:02:46;6.05;;;2.28;;
40154;SDS011;25875;48.202;16.334;2023-05-10T10:05:14;5.32;;;2.38;;
40154;SDS011;25875;48.202;16.334;2023-05-10T10:07:41;3.05;;;2.10;;
40154;SDS011;25875;48.202;16.334;2023-05-10T10:10:08;6.45;;;2.83;;
40154;SDS011;25875;48.202;16.334;2023-05-10T10:12:38;3.00;;;2.30;;
40154;SDS011;25875;48.202;16.334;2023-05-10T10:15:05;2.63;;;2.00;;
40154;SDS011;25875;48.202;16.334;2023-05-10T10:17:35;4.22;;;2.47;;
40154;SDS011;25875;48.202;16.334;2023-05-10T10:20:03;4.65;;;2.15;;
40154;SDS011;25875;48.202;16.334;2023-05-10T10:22:31;3.85;;;2.25;;
40154;SDS011;25875;48.202;16.334;2023-05-10T10:24:57;3.97;;;2.40;;
40154;SDS011;25875;48.202;16.334;2023-05-10T10:27:26;3.28;;;2.25;;
40154;SDS011;25875;48.202;16.334;2023-05-10T10:30:03;6.97;;;2.63;;
40154;SDS011;25875;48.202;16.334;2023-05-10T10:32:46;5.10;;;2.30;;
40154;SDS011;25875;48.202;16.334;2023-05-10T10:35:26;3.58;;;2.05;;
40154;SDS011;25875;48.202;16.334;2023-05-10T10:37:55;4.45;;;1.90;;
40154;SDS011;25875;48.202;16.334;2023-05-10T10:40:23;4.18;;;2.15;;
40154;SDS011;25875;48.202;16.334;2023-05-10T10:42:51;3.65;;;2.20;;
40154;SDS011;25875;48.202;16.334;2023-05-10T10:45:19;3.30;;;2.20;;
40154;SDS011;25875;48.202;16.334;2023-05-10T10:47:48;4.50;;;2.10;;
40154;SDS011;25875;48.202;16.334;2023-05-10T10:50:16;4.05;;;2.33;;
40154;SDS011;25875;48.202;16.334;2023-05-10T10:52:43;3.50;;;2.22;;
40154;SDS011;25875;48.202;16.334;2023-05-10T10:55:11;4.00;;;2.28;;
40154;SDS011;25875;48.202;16.334;2023-05-10T10:57:43;3.65;;;1.95;;
40154;SDS011;25875;48.202;16.334;2023-05-10T11:00:18;6.20;;;2.30;;
40154;SDS011;25875;48.202;16.334;2023-05-10T11:02:49;4.13;;;2.10;;
40154;SDS011;25875;48.202;16.334;2023-05-10T11:05:26;3.45;;;2.30;;
40154;SDS011;25875;48.202;16.334;2023-05-10T11:08:07;3.72;;;2.50;;
40154;SDS011;25875;48.202;16.334;2023-05-10T11:10:36;5.07;;;2.55;;
40154;SDS011;25875;48.202;16.334;2023-05-10T11:13:03;3.42;;;2.60;;
40154;SDS011;25875;48.202;16.334;2023-05-10T11:15:31;4.57;;;2.28;;
40154;SDS011;25875;48.202;16.334;2023-05-10T11:18:00;2.95;;;2.28;;
40154;SDS011;25875;48.202;16.334;2023-05-10T11:20:42;5.87;;;2.40;;
40154;SDS011;25875;48.202;16.334;2023-05-10T11:23:12;4.40;;;2.47;;
40154;SDS011;25875;48.202;16.334;2023-05-10T11:25:42;5.40;;;2.30;;
40154;SDS011;25875;48.202;16.334;2023-05-10T11:28:10;3.92;;;2.38;;
40154;SDS011;25875;48.202;16.334;2023-05-10T11:30:37;3.88;;;2.00;;
40154;SDS011;25875;48.202;16.334;2023-05-10T11:33:07;4.45;;;2.42;;
40154;SDS011;25875;48.202;16.334;2023-05-10T11:35:37;5.90;;;2.28;;
40154;SDS011;25875;48.202;16.334;2023-05-10T11:38:05;5.43;;;2.42;;
40154;SDS011;25875;48.202;16.334;2023-05-10T11:40:32;4.28;;;2.33;;
40154;SDS011;25875;48.202;16.334;2023-05-10T11:42:59;3.47;;;2.25;;
40154;SDS011;25875;48.202;16.334;2023-05-10T11:45:26;5.07;;;2.55;;
40154;SDS011;25875;48.202;16.334;2023-05-10T11:47:58;3.83;;;2.40;;
40154;SDS011;25875;48.202;16.334;2023-05-10T11:50:27;5.85;;;2.50;;
40154;SDS011;25875;48.202;16.334;2023-05-10T11:52:55;3.20;;;2.30;;
40154;SDS011;25875;48.202;16.334;2023-05-10T11:55:23;5.25;;;2.42;;
40154;SDS011;25875;48.202;16.334;2023-05-10T11:57:53;3.65;;;2.17;;
40154;SDS011;25875;48.202;16.334;2023-05-10T12:00:20;6.70;;;2.30;;
40154;SDS011;25875;48.202;16.334;2023-05-10T12:02:47;4.15;;;2.00;;
40154;SDS011;25875;48.202;16.334;2023-05-10T12:05:15;3.72;;;2.20;;
40154;SDS011;25875;48.202;16.334;2023-05-10T12:07:44;5.25;;;2.40;;
40154;SDS011;25875;48.202;16.334;2023-05-10T12:10:11;8.15;;;2.50;;
40154;SDS011;25875;48.202;16.334;2023-05-10T12:12:40;2.63;;;2.00;;
40154;SDS011;25875;48.202;16.334;2023-05-10T12:15:11;4.88;;;2.33;;
40154;SDS011;25875;48.202;16.334;2023-05-10T12:17:43;3.38;;;2.10;;
40154;SDS011;25875;48.202;16.334;2023-05-10T12:20:14;4.10;;;2.17;;
40154;SDS011;25875;48.202;16.334;2023-05-10T12:22:45;4.07;;;2.08;;
40154;SDS011;25875;48.202;16.334;2023-05-10T12:25:13;3.58;;;1.85;;
40154;SDS011;25875;48.202;16.334;2023-05-10T12:27:41;3.15;;;1.83;;
40154;SDS011;25875;48.202;16.334;2023-05-10T12:30:13;2.80;;;1.88;;
40154;SDS011;25875;48.202;16.334;2023-05-10T12:32:46;4.05;;;2.28;;
40154;SDS011;25875;48.202;16.334;2023-05-10T12:35:13;5.15;;;1.70;;
40154;SDS011;25875;48.202;16.334;2023-05-10T12:37:40;3.25;;;1.92;;
40154;SDS011;25875;48.202;16.334;2023-05-10T12:40:10;4.22;;;2.35;;
40154;SDS011;25875;48.202;16.334;2023-05-10T12:42:38;3.83;;;2.13;;
40154;SDS011;25875;48.202;16.334;2023-05-10T12:45:05;2.72;;;1.88;;
40154;SDS011;25875;48.202;16.334;2023-05-10T12:47:33;3.20;;;1.85;;
40154;SDS011;25875;48.202;16.334;2023-05-10T12:50:00;5.55;;;1.88;;
40154;SDS011;25875;48.202;16.334;2023-05-10T12:52:28;5.03;;;2.10;;
40154;SDS011;25875;48.202;16.334;2023-05-10T12:54:55;4.57;;;1.75;;
40154;SDS011;25875;48.202;16.334;2023-05-10T12:57:23;4.22;;;1.95;;
40154;SDS011;25875;48.202;16.334;2023-05-10T12:59:50;5.15;;;2.25;;
40154;SDS011;25875;48.202;16.334;2023-05-10T13:02:17;3.53;;;1.80;;
40154;SDS011;25875;48.202;16.334;2023-05-10T13:04:46;4.35;;;1.85;;
40154;SDS011;25875;48.202;16.334;2023-05-10T13:07:13;5.63;;;2.05;;
40154;SDS011;25875;48.202;16.334;2023-05-10T13:09:39;3.22;;;2.00;;
40154;SDS011;25875;48.202;16.334;2023-05-10T13:12:06;3.80;;;2.10;;
40154;SDS011;25875;48.202;16.334;2023-05-10T13:14:34;4.80;;;2.20;;
40154;SDS011;25875;48.202;16.334;2023-05-10T13:17:01;4.05;;;2.28;;
40154;SDS011;25875;48.202;16.334;2023-05-10T13:19:28;6.38;;;2.30;;
40154;SDS011;25875;48.202;16.334;2023-05-10T13:21:55;6.32;;;2.38;;
40154;SDS011;25875;48.202;16.334;2023-05-10T13:24:21;3.30;;;2.30;;
40154;SDS011;25875;48.202;16.334;2023-05-10T13:26:48;5.25;;;2.47;;
40154;SDS011;25875;48.202;16.334;2023-05-10T13:29:15;8.85;;;2.42;;
40154;SDS011;25875;48.202;16.334;2023-05-10T13:31:46;6.00;;;2.70;;
40154;SDS011;25875;48.202;16.334;2023-05-10T13:34:12;7.22;;;2.58;;
40154;SDS011;25875;48.202;16.334;2023-05-10T13:36:39;4.47;;;2.47;;
40154;SDS011;25875;48.202;16.334;2023-05-10T13:39:06;4.80;;;2.50;;
40154;SDS011;25875;48.202;16.334;2023-05-10T13:41:33;4.88;;;2.88;;
40154;SDS011;25875;48.202;16.334;2023-05-10T13:44:01;5.13;;;2.78;;
40154;SDS011;25875;48.202;16.334;2023-05-10T13:46:28;6.82;;;2.95;;
40154;SDS011;25875;48.202;16.334;2023-05-10T13:48:58;3.15;;;2.42;;
40154;SDS011;25875;48.202;16.334;2023-05-10T13:51:25;4.63;;;2.42;;
40154;SDS011;25875;48.202;16.334;2023-05-10T13:53:52;3.88;;;2.42;;
40154;SDS011;25875;48.202;16.334;2023-05-10T13:56:18;3.65;;;2.20;;
40154;SDS011;25875;48.202;16.334;2023-05-10T13:58:45;3.08;;;2.10;;
40154;SDS011;25875;48.202;16.334;2023-05-10T14:01:12;4.50;;;2.03;;
40154;SDS011;25875;48.202;16.334;2023-05-10T14:03:40;3.28;;;2.28;;
40154;SDS011;25875;48.202;16.334;2023-05-10T14:06:08;5.20;;;2.70;;
40154;SDS011;25875;48.202;16.334;2023-05-10T14:08:35;3.28;;;2.20;;
40154;SDS011;25875;48.202;16.334;2023-05-10T14:11:01;6.88;;;2.80;;
40154;SDS011;25875;48.202;16.334;2023-05-10T14:13:28;4.25;;;2.08;;
40154;SDS011;25875;48.202;16.334;2023-05-10T14:15:55;3.25;;;2.25;;
40154;SDS011;25875;48.202;16.334;2023-05-10T14:18:22;4.05;;;2.33;;
40154;SDS011;25875;48.202;16.334;2023-05-10T14:20:49;5.70;;;2.78;;
40154;SDS011;25875;48.202;16.334;2023-05-10T14:23:17;3.28;;;2.05;;
40154;SDS011;25875;48.202;16.334;2023-05-10T14:25:44;5.05;;;2.35;;
40154;SDS011;25875;48.202;16.334;2023-05-10T14:28:11;4.25;;;2.40;;
40154;SDS011;25875;48.202;16.334;2023-05-10T14:30:38;3.92;;;2.42;;
40154;SDS011;25875;48.202;16.334;2023-05-10T14:33:05;3.53;;;2.22;;
40154;SDS011;25875;48.202;16.334;2023-05-10T14:35:32;4.07;;;2.22;;
40154;SDS011;25875;48.202;16.334;2023-05-10T14:37:59;6.13;;;2.40;;
40154;SDS011;25875;48.202;16.334;2023-05-10T14:40:27;3.95;;;2.60;;
40154;SDS011;25875;48.202;16.334;2023-05-10T14:42:54;3.75;;;2.28;;